createdAt,value
2018-08-09T05:55:58.380Z,21.20
2018-08-09T05:58:27.548Z,21.27
2018-08-09T06:00:56.612Z,21.33
2018-08-09T06:03:25.740Z,21.38
2018-08-09T06:05:55.029Z,21.43
2018-08-09T06:08:24.352Z,21.51
2018-08-09T06:10:53.455Z,21.55
2018-08-09T06:13:22.642Z,21.63
2018-08-09T06:15:51.664Z,21.73
2018-08-09T06:18:20.829Z,21.81
2018-08-09T06:20:49.986Z,21.86
2018-08-09T06:23:19.115Z,21.91
2018-08-09T06:25:48.225Z,21.97
2018-08-09T06:28:17.415Z,22.07
2018-08-09T06:30:46.929Z,22.16
2018-08-09T06:33:16.066Z,22.27
2018-08-09T06:35:45.990Z,22.37
2018-08-09T06:38:15.129Z,22.45
2018-08-09T06:40:44.344Z,22.58
2018-08-09T06:43:13.512Z,22.70
2018-08-09T06:45:42.668Z,22.82
2018-08-09T06:48:11.826Z,22.91
2018-08-09T06:50:41.002Z,23.01
2018-08-09T06:53:10.168Z,23.11
2018-08-09T06:55:39.434Z,23.16
2018-08-09T06:58:08.628Z,23.24
2018-08-09T07:00:37.801Z,23.31
2018-08-09T07:03:06.959Z,23.38
2018-08-09T07:05:36.354Z,23.49
2018-08-09T07:08:05.536Z,23.60
2018-08-09T07:10:34.782Z,23.64
2018-08-09T07:13:03.984Z,23.70
2018-08-09T07:15:33.215Z,23.73
2018-08-09T07:18:02.660Z,23.80
2018-08-09T07:20:32.179Z,23.86
2018-08-09T07:23:01.432Z,23.91
2018-08-09T07:25:30.856Z,23.95
2018-08-09T07:28:00.503Z,24.01
2018-08-09T07:30:30.606Z,24.08
2018-08-09T07:33:01.145Z,24.17
2018-08-09T07:35:30.696Z,24.28
2018-08-09T07:38:00.730Z,24.40
2018-08-09T07:40:30.703Z,24.54
2018-08-09T07:43:00.646Z,24.70
2018-08-09T07:45:30.786Z,24.72
2018-08-09T07:48:00.736Z,24.65
2018-08-09T07:50:30.742Z,24.58
2018-08-09T07:53:00.836Z,24.62
2018-08-09T07:55:30.764Z,24.71
2018-08-09T07:58:00.760Z,24.82
2018-08-09T08:00:30.885Z,24.87
2018-08-09T08:03:00.815Z,24.94
2018-08-09T08:05:30.989Z,24.98
2018-08-09T08:08:01.037Z,24.97
2018-08-09T08:10:31.007Z,24.95
2018-08-09T08:13:00.889Z,24.93
2018-08-09T08:15:31.012Z,25.00
2018-08-09T08:18:00.945Z,25.15
2018-08-09T08:20:30.973Z,25.26
2018-08-09T08:23:01.092Z,25.36
2018-08-09T08:25:31.033Z,25.54
2018-08-09T08:28:01.590Z,25.71
2018-08-09T08:30:31.080Z,25.85
2018-08-09T08:33:01.164Z,25.98
2018-08-09T08:35:31.095Z,26.10
2018-08-09T08:38:01.175Z,26.24
2018-08-09T08:40:31.188Z,26.30
2018-08-09T08:43:01.200Z,26.35
2018-08-09T08:45:31.340Z,26.34
2018-08-09T08:48:01.225Z,26.38
2018-08-09T08:50:31.224Z,26.48
2018-08-09T08:53:01.206Z,26.56
2018-08-09T08:55:31.348Z,26.61
2018-08-09T08:58:01.342Z,26.69
2018-08-09T09:00:31.478Z,26.80
2018-08-09T09:03:01.384Z,26.93
2018-08-09T09:05:31.414Z,27.05
2018-08-09T09:08:01.543Z,27.06
2018-08-09T09:10:31.395Z,27.10
2018-08-09T09:13:01.522Z,27.17
2018-08-09T09:15:31.399Z,27.25
2018-08-09T09:18:01.572Z,27.38
2018-08-09T09:20:31.517Z,27.40
2018-08-09T09:23:01.592Z,27.48
2018-08-09T09:25:31.521Z,27.55
2018-08-09T09:28:01.564Z,27.60
2018-08-09T09:30:31.590Z,27.66
2018-08-09T09:33:01.578Z,27.76
2018-08-09T09:35:31.614Z,27.89
2018-08-09T09:38:01.602Z,27.94
2018-08-09T09:40:31.554Z,28.08
2018-08-09T09:43:01.629Z,28.11
2018-08-09T09:45:31.639Z,28.08
2018-08-09T09:48:01.660Z,28.11
2018-08-09T09:50:31.712Z,28.24
2018-08-09T09:53:01.688Z,28.42
2018-08-09T09:55:31.778Z,28.52
2018-08-09T09:58:01.845Z,28.64
2018-08-09T10:00:38.815Z,28.80
2018-08-09T10:03:08.031Z,28.85
2018-08-09T10:05:37.228Z,28.94
2018-08-09T10:08:06.516Z,28.98
2018-08-09T10:10:35.759Z,29.05
2018-08-09T10:13:04.960Z,29.10
2018-08-09T10:15:34.112Z,29.14
2018-08-09T10:18:03.302Z,29.16
2018-08-09T10:20:32.569Z,29.06
2018-08-09T10:23:01.912Z,28.95
2018-08-09T10:25:31.949Z,28.97
2018-08-09T10:28:01.111Z,29.07
2018-08-09T10:30:30.251Z,29.17
2018-08-09T10:32:59.684Z,29.08
2018-08-09T10:35:28.913Z,29.08
2018-08-09T10:37:58.047Z,29.13
2018-08-09T10:40:27.242Z,29.24
2018-08-09T10:42:56.383Z,29.33
2018-08-09T10:45:25.532Z,29.44
2018-08-09T10:47:54.738Z,29.37
2018-08-09T10:50:23.969Z,29.36
2018-08-09T10:52:53.153Z,29.45
2018-08-09T10:55:22.344Z,29.62
2018-08-09T10:57:51.481Z,29.62
2018-08-09T11:00:20.656Z,29.67
2018-08-09T11:02:50.069Z,29.73
2018-08-09T11:05:19.300Z,29.71
2018-08-09T11:07:48.519Z,29.69
2018-08-09T11:10:17.691Z,29.72
2018-08-09T11:12:46.937Z,29.76
2018-08-09T11:15:16.151Z,29.88
2018-08-09T11:17:45.356Z,29.92
2018-08-09T11:20:14.553Z,30.07
2018-08-09T11:22:43.782Z,30.17
2018-08-09T11:25:12.998Z,30.14
2018-08-09T11:27:42.147Z,30.17
2018-08-09T11:30:11.371Z,30.28
2018-08-09T11:32:40.503Z,30.41
2018-08-09T11:35:09.684Z,30.41
2018-08-09T11:37:38.891Z,30.25
2018-08-09T11:40:08.183Z,30.39
2018-08-09T11:42:37.434Z,30.45
2018-08-09T11:45:06.849Z,30.58
2018-08-09T11:47:35.977Z,30.65
2018-08-09T11:50:05.644Z,30.72
2018-08-09T11:52:34.825Z,30.77
2018-08-09T11:55:04.009Z,30.67
2018-08-09T11:57:33.178Z,30.59
2018-08-09T12:00:02.912Z,30.54
2018-08-09T12:02:32.844Z,30.53
2018-08-09T12:05:01.955Z,30.62
2018-08-09T12:07:31.159Z,30.80
2018-08-09T12:10:00.921Z,30.88
2018-08-09T12:12:30.125Z,31.02
2018-08-09T12:14:59.283Z,31.04
2018-08-09T12:17:28.433Z,31.08
2018-08-09T12:19:57.741Z,31.18
2018-08-09T12:22:26.912Z,31.27
2018-08-09T12:24:56.156Z,31.33
2018-08-09T12:27:25.401Z,31.38
2018-08-09T12:29:54.651Z,31.42
2018-08-09T12:32:24.106Z,31.40
2018-08-09T12:34:53.284Z,31.38
2018-08-09T12:37:22.512Z,31.43
2018-08-09T12:39:51.695Z,31.56
2018-08-09T12:42:20.943Z,31.69
2018-08-09T12:44:50.243Z,31.75
2018-08-09T12:47:19.553Z,31.89
2018-08-09T12:49:48.765Z,32.03
2018-08-09T12:52:17.981Z,32.00
2018-08-09T12:54:47.469Z,32.06
2018-08-09T12:57:16.672Z,32.12
2018-08-09T12:59:45.852Z,32.21
2018-08-09T13:02:15.072Z,32.27
2018-08-09T13:04:44.295Z,32.28
2018-08-09T13:07:13.482Z,32.28
2018-08-09T13:09:42.733Z,32.32
2018-08-09T13:12:12.023Z,32.42
2018-08-09T13:14:41.292Z,32.48
2018-08-09T13:17:10.581Z,32.62
2018-08-09T13:19:39.805Z,32.58
2018-08-09T13:22:09.026Z,32.58
2018-08-09T13:24:38.429Z,32.75
2018-08-09T13:27:07.688Z,32.94
2018-08-09T13:29:36.926Z,33.06
2018-08-09T13:32:06.145Z,33.13
2018-08-09T13:34:35.314Z,33.14
2018-08-09T13:37:04.746Z,33.06
2018-08-09T13:39:33.889Z,33.13
2018-08-09T13:42:03.870Z,33.17
2018-08-09T13:44:33.897Z,33.19
2018-08-09T13:47:04.046Z,33.28
2018-08-09T13:49:34.003Z,33.46
2018-08-09T13:52:04.052Z,33.71
2018-08-09T13:54:33.936Z,33.88
2018-08-09T13:57:03.984Z,34.06
2018-08-09T13:59:33.869Z,34.16
2018-08-09T14:02:04.006Z,34.31
2018-08-09T14:04:34.068Z,34.37
2018-08-09T14:07:04.142Z,34.37
2018-08-09T14:09:34.146Z,34.41
2018-08-09T14:12:04.044Z,34.62
2018-08-09T14:14:34.056Z,34.81
2018-08-09T14:17:04.047Z,35.12
2018-08-09T14:19:34.177Z,35.39
2018-08-09T14:22:04.167Z,35.70
2018-08-09T14:24:34.234Z,35.92
2018-08-09T14:27:04.204Z,36.21
2018-08-09T14:29:34.216Z,36.46
2018-08-09T14:32:04.388Z,36.78
2018-08-09T14:34:34.329Z,36.86
2018-08-09T14:37:04.513Z,36.96
2018-08-09T14:39:34.438Z,37.18
2018-08-09T14:42:04.432Z,37.28
2018-08-09T14:44:34.449Z,37.26
2018-08-09T14:47:04.405Z,37.26
2018-08-09T14:49:34.449Z,37.32
2018-08-09T14:52:04.429Z,37.26
2018-08-09T14:54:34.539Z,36.70
2018-08-09T14:57:04.639Z,36.72
2018-08-09T14:59:34.523Z,37.09
2018-08-09T15:02:04.729Z,37.11
2018-08-09T15:04:34.581Z,37.13
2018-08-09T15:07:04.622Z,37.50
2018-08-09T15:09:34.597Z,37.63
2018-08-09T15:12:04.878Z,37.54
2018-08-09T15:14:34.700Z,37.52
2018-08-09T15:17:05.105Z,37.47
2018-08-09T15:19:35.109Z,37.22
2018-08-09T15:22:05.161Z,36.78
2018-08-09T15:24:35.167Z,36.29
2018-08-09T15:27:05.198Z,35.76
2018-08-09T15:29:34.691Z,35.47
2018-08-09T15:32:03.901Z,35.22
2018-08-09T15:34:33.101Z,35.04
2018-08-09T15:37:02.300Z,34.88
2018-08-09T15:39:31.435Z,34.68
2018-08-09T15:42:00.623Z,34.58
2018-08-09T15:44:29.740Z,34.45
2018-08-09T15:46:58.967Z,34.34
2018-08-09T15:49:28.074Z,34.39
2018-08-09T15:51:57.280Z,34.60
2018-08-09T15:54:26.518Z,34.48
2018-08-09T15:56:55.729Z,34.30
2018-08-09T15:59:24.916Z,34.14
2018-08-09T16:01:54.126Z,33.97
2018-08-09T16:04:23.374Z,33.87
2018-08-09T16:06:52.568Z,34.04
2018-08-09T16:09:21.732Z,34.41
2018-08-09T16:11:50.936Z,34.82
2018-08-09T16:14:20.138Z,34.97
2018-08-09T16:16:49.369Z,34.88
2018-08-09T16:19:18.542Z,34.88
2018-08-09T16:21:47.693Z,34.81
2018-08-09T16:24:16.886Z,34.66
2018-08-09T16:26:46.152Z,34.45
2018-08-09T16:29:15.373Z,34.26
2018-08-09T16:44:43.978Z,34.05
2018-08-09T16:47:13.170Z,33.02
2018-08-09T16:49:42.343Z,32.89
2018-08-09T16:52:11.692Z,32.84
2018-08-09T16:54:40.846Z,32.74
2018-08-09T16:57:10.015Z,32.60
2018-08-09T16:59:39.188Z,32.50
2018-08-09T17:02:08.338Z,32.39
2018-08-09T17:04:37.513Z,32.36
2018-08-09T17:07:06.724Z,32.31
2018-08-09T17:09:35.853Z,32.21
2018-08-09T17:12:05.817Z,32.09
2018-08-09T17:14:35.854Z,31.97
2018-08-09T17:17:06.234Z,31.90
2018-08-09T17:19:35.866Z,31.81
2018-08-09T17:22:06.553Z,31.72
2018-08-09T17:24:35.843Z,31.64
2018-08-09T17:27:05.920Z,31.59
2018-08-09T17:29:36.036Z,31.53
2018-08-09T17:32:05.988Z,31.47
2018-08-09T17:34:35.961Z,31.36
2018-08-09T17:37:06.121Z,31.03
2018-08-09T17:39:36.035Z,30.48
2018-08-09T17:42:06.152Z,30.05
2018-08-09T17:44:36.072Z,29.63
2018-08-09T17:47:06.277Z,29.23
2018-08-09T17:49:36.088Z,28.85
2018-08-09T17:52:06.506Z,28.72
2018-08-09T17:54:36.325Z,28.56
2018-08-09T17:57:06.517Z,27.92
2018-08-09T17:59:36.273Z,27.57
2018-08-09T18:02:06.301Z,27.22
2018-08-09T18:04:36.179Z,27.04
2018-08-09T18:07:06.391Z,26.91
2018-08-09T18:09:36.216Z,26.78
2018-08-09T18:12:06.347Z,26.68
2018-08-09T18:14:36.235Z,26.72
2018-08-09T18:17:06.351Z,26.69
2018-08-09T18:19:36.270Z,26.68
2018-08-09T18:22:07.086Z,26.66
2018-08-09T18:24:36.515Z,26.57
2018-08-09T18:27:06.499Z,26.47
2018-08-09T18:29:36.514Z,26.39
2018-08-09T18:32:06.495Z,26.34
2018-08-09T18:34:36.515Z,26.31
2018-08-09T18:37:06.677Z,26.31
2018-08-09T18:39:36.551Z,26.31
2018-08-09T18:42:06.645Z,26.30
2018-08-09T18:44:36.609Z,26.28
2018-08-09T18:47:06.603Z,26.25
2018-08-09T18:49:36.961Z,26.22
2018-08-09T18:52:06.809Z,26.19
2018-08-09T18:54:36.828Z,26.19
2018-08-09T18:57:06.715Z,26.16
2018-08-09T18:59:36.832Z,26.14
2018-08-09T19:02:07.021Z,26.15
2018-08-09T19:04:36.960Z,26.14
2018-08-09T19:07:07.407Z,26.13
2018-08-09T19:09:36.999Z,26.13
2018-08-09T19:12:07.151Z,26.12
2018-08-09T19:14:37.006Z,26.08
2018-08-09T19:17:07.170Z,26.06
2018-08-09T19:19:36.917Z,26.06
2018-08-09T19:22:07.108Z,26.03
2018-08-09T19:24:37.123Z,25.91
2018-08-09T19:27:07.102Z,25.75
2018-08-09T19:29:37.131Z,25.66
2018-08-09T19:32:07.342Z,25.62
2018-08-09T19:34:37.306Z,25.55
2018-08-09T19:37:07.475Z,25.52
2018-08-09T19:39:37.425Z,25.41
2018-08-09T19:42:07.286Z,25.38
2018-08-09T19:44:37.305Z,25.32
2018-08-09T19:47:07.397Z,25.27
2018-08-09T19:49:37.364Z,25.23
2018-08-09T19:52:07.407Z,25.20
2018-08-09T19:54:37.520Z,25.14
2018-08-09T19:57:07.435Z,25.11
2018-08-09T19:59:37.483Z,25.08
2018-08-09T20:02:07.634Z,25.09
2018-08-09T20:04:37.509Z,25.12
2018-08-09T20:07:07.621Z,25.09
2018-08-09T20:09:37.544Z,25.01
2018-08-09T20:12:07.619Z,24.79
2018-08-09T20:14:37.562Z,24.57
2018-08-09T20:17:07.466Z,24.37
2018-08-09T20:19:36.759Z,24.27
2018-08-09T20:22:08.213Z,24.21
2018-08-09T20:24:37.482Z,24.07
2018-08-09T20:27:07.646Z,23.97
2018-08-09T20:29:37.705Z,23.90
2018-08-09T20:32:07.858Z,23.76
2018-08-09T20:34:37.741Z,23.69
2018-08-09T20:37:07.774Z,23.64
2018-08-09T20:39:37.800Z,23.56
2018-08-09T20:42:08.119Z,23.51
2018-08-09T20:44:37.873Z,23.46
2018-08-09T20:47:07.947Z,23.39
2018-08-09T20:49:37.966Z,23.31
2018-08-09T20:52:07.847Z,23.20
2018-08-09T20:54:37.918Z,23.24
2018-08-09T20:57:08.121Z,23.28
2018-08-09T20:59:37.958Z,23.27
2018-08-09T21:02:08.221Z,23.16
2018-08-09T21:04:38.024Z,23.09
2018-08-09T21:07:08.087Z,23.08
2018-08-09T21:09:37.270Z,22.97
2018-08-09T21:12:06.430Z,22.92
2018-08-09T21:14:35.620Z,22.82
2018-08-09T21:17:04.950Z,22.82
2018-08-09T21:19:34.128Z,22.80
2018-08-09T21:22:03.302Z,22.76
2018-08-09T21:24:32.528Z,22.74
2018-08-09T21:27:01.735Z,22.69
2018-08-09T21:29:30.897Z,22.68
2018-08-09T21:32:00.363Z,22.67
2018-08-09T21:34:29.492Z,22.69
2018-08-09T21:36:58.698Z,22.67
2018-08-09T21:39:27.849Z,22.66
2018-08-09T21:41:56.996Z,22.64
2018-08-09T21:44:26.185Z,22.67
2018-08-09T21:46:55.474Z,22.65
2018-08-09T21:49:24.678Z,22.57
2018-08-09T21:51:53.936Z,22.54
2018-08-09T21:54:23.021Z,22.56
2018-08-09T21:56:52.211Z,22.57
2018-08-09T21:59:21.359Z,22.56
2018-08-09T22:01:50.652Z,22.57
2018-08-09T22:04:19.791Z,22.61
2018-08-09T22:06:54.232Z,22.61
2018-08-09T22:09:28.656Z,22.60
2018-08-09T22:12:03.080Z,22.58
2018-08-09T22:14:37.540Z,22.45
2018-08-09T22:17:11.987Z,22.39
2018-08-09T22:19:46.520Z,22.37
2018-08-09T22:22:16.088Z,22.34
2018-08-09T22:24:45.248Z,22.34
2018-08-09T22:27:14.448Z,22.35
2018-08-09T22:29:43.636Z,22.27
2018-08-09T22:32:12.776Z,22.22
2018-08-09T22:34:41.948Z,22.22
2018-08-09T22:37:11.191Z,22.19
2018-08-09T22:39:40.339Z,22.19
2018-08-09T22:42:10.086Z,22.19
2018-08-09T22:44:39.932Z,22.22
2018-08-09T22:47:10.126Z,22.27
2018-08-09T22:49:40.097Z,22.28
2018-08-09T22:52:10.135Z,22.34
2018-08-09T22:54:40.121Z,22.37
2018-08-09T22:57:10.296Z,22.40
2018-08-09T22:59:40.540Z,22.38
2018-08-09T23:02:11.003Z,22.42
2018-08-09T23:04:40.749Z,22.42
2018-08-09T23:07:10.679Z,22.41
2018-08-09T23:09:40.638Z,22.35
2018-08-09T23:12:10.733Z,22.37
2018-08-09T23:14:40.780Z,22.38
2018-08-09T23:17:10.815Z,22.37
2018-08-09T23:19:41.233Z,22.38
2018-08-09T23:22:11.923Z,22.41
2018-08-09T23:24:41.325Z,22.38
2018-08-09T23:27:10.820Z,22.40
2018-08-09T23:29:40.822Z,22.42
2018-08-09T23:32:15.365Z,22.40
2018-08-09T23:34:44.803Z,22.40
2018-08-09T23:37:14.201Z,22.37
2018-08-09T23:39:43.661Z,22.28
2018-08-09T23:42:15.969Z,22.20
2018-08-09T23:44:45.403Z,22.17
2018-08-09T23:47:14.809Z,22.15
2018-08-09T23:49:44.234Z,22.15
2018-08-09T23:52:13.754Z,22.13
2018-08-09T23:54:43.333Z,22.12
2018-08-09T23:57:12.704Z,22.06
2018-08-09T23:59:42.127Z,22.05
